createdAt,value
2018-02-07T00:00:59.244Z,38.47
2018-02-07T00:01:58.648Z,38.46
2018-02-07T00:02:59.109Z,38.46
2018-02-07T00:03:58.531Z,38.45
2018-02-07T00:04:58.962Z,38.43
2018-02-07T00:05:58.403Z,38.38
2018-02-07T00:06:58.834Z,38.38
2018-02-07T00:07:59.279Z,38.48
2018-02-07T00:08:58.723Z,38.41
2018-02-07T00:09:59.221Z,38.43
2018-02-07T00:10:58.609Z,38.47
2018-02-07T00:11:59.057Z,38.37
2018-02-07T00:12:58.492Z,38.43
2018-02-07T00:13:59.018Z,38.5
2018-02-07T00:15:58.669Z,38.45
2018-02-07T00:16:59.120Z,38.49
2018-02-07T00:17:58.739Z,38.47
2018-02-07T00:18:59.192Z,38.48
2018-02-07T00:19:58.651Z,38.46
2018-02-07T00:20:59.096Z,38.47
2018-02-07T00:21:58.512Z,38.4
2018-02-07T00:22:58.971Z,38.47
2018-02-07T00:23:58.395Z,38.43
2018-02-07T00:24:58.813Z,38.48
2018-02-07T00:25:59.257Z,38.45
2018-02-07T00:26:58.681Z,38.38
2018-02-07T00:27:59.106Z,38.46
2018-02-07T00:28:58.528Z,38.47
2018-02-07T00:29:58.947Z,38.43
2018-02-07T00:30:58.386Z,38.44
2018-02-07T00:31:58.819Z,38.4
2018-02-07T00:32:59.240Z,38.46
2018-02-07T00:33:58.771Z,38.38
2018-02-07T00:34:59.183Z,38.46
2018-02-07T00:35:58.632Z,38.44
2018-02-07T00:36:59.097Z,38.39
2018-02-07T00:37:58.517Z,38.42
2018-02-07T00:38:58.958Z,38.38
2018-02-07T00:39:58.406Z,38.38
2018-02-07T00:40:58.859Z,38.4
2018-02-07T00:41:59.277Z,38.33
2018-02-07T00:42:58.710Z,38.44
2018-02-07T00:43:59.165Z,38.4
2018-02-07T00:44:58.593Z,38.46
2018-02-07T00:45:59.005Z,38.51
2018-02-07T00:46:58.484Z,38.37
2018-02-07T00:47:58.930Z,38.37
2018-02-07T00:48:58.415Z,38.4
2018-02-07T00:49:58.864Z,38.41
2018-02-07T00:50:59.294Z,38.41
2018-02-07T00:51:58.709Z,38.37
2018-02-07T00:52:59.105Z,38.41
2018-02-07T00:53:58.539Z,38.33
2018-02-07T00:54:59.005Z,38.42
2018-02-07T00:55:58.428Z,38.47
2018-02-07T00:56:58.886Z,38.41
2018-02-07T00:57:58.406Z,38.45
2018-02-07T00:58:58.937Z,38.4
2018-02-07T00:59:58.405Z,38.49
2018-02-07T01:00:58.979Z,38.45
2018-02-07T01:01:58.458Z,38.45
2018-02-07T01:02:58.904Z,38.4
2018-02-07T01:03:58.321Z,38.42
2018-02-07T01:04:58.812Z,38.41
2018-02-07T01:05:59.232Z,38.46
2018-02-07T01:06:58.663Z,38.46
2018-02-07T01:07:59.108Z,38.49
2018-02-07T01:08:58.632Z,38.44
2018-02-07T01:09:59.096Z,38.43
2018-02-07T01:10:58.549Z,38.42
2018-02-07T01:11:58.996Z,38.43
2018-02-07T01:12:58.438Z,38.42
2018-02-07T01:13:58.860Z,38.41
2018-02-07T01:14:59.330Z,38.34
2018-02-07T01:15:58.798Z,38.37
2018-02-07T01:16:59.219Z,38.39
2018-02-07T01:17:58.682Z,38.42
2018-02-07T01:18:58.336Z,38.39
2018-02-07T01:19:58.786Z,38.38
2018-02-07T01:20:59.261Z,38.41
2018-02-07T01:21:58.668Z,38.41
2018-02-07T01:22:59.113Z,38.46
2018-02-07T01:23:58.586Z,38.41
2018-02-07T01:24:59.065Z,38.42
2018-02-07T01:25:58.489Z,38.4
2018-02-07T01:26:58.968Z,38.42
2018-02-07T01:27:58.393Z,38.47
2018-02-07T01:28:58.822Z,38.46
2018-02-07T01:29:59.247Z,38.43
2018-02-07T01:30:58.737Z,38.42
2018-02-07T01:31:59.154Z,38.41
2018-02-07T01:32:58.612Z,38.43
2018-02-07T01:33:59.071Z,38.42
2018-02-07T01:34:58.507Z,38.39
2018-02-07T01:35:58.960Z,38.47
2018-02-07T01:36:58.411Z,38.42
2018-02-07T01:37:58.832Z,38.44
2018-02-07T01:38:59.273Z,38.43
2018-02-07T01:39:58.705Z,38.41
2018-02-07T01:40:59.153Z,38.41
2018-02-07T01:41:58.576Z,38.39
2018-02-07T01:42:59.013Z,38.48
2018-02-07T01:43:58.439Z,38.42
2018-02-07T01:44:58.899Z,38.42
2018-02-07T01:45:58.368Z,38.43
2018-02-07T01:46:58.793Z,38.43
2018-02-07T01:47:59.209Z,38.43
2018-02-07T01:48:58.621Z,38.38
2018-02-07T01:49:59.060Z,38.37
2018-02-07T01:50:58.506Z,38.37
2018-02-07T01:51:58.927Z,38.34
2018-02-07T01:52:58.383Z,38.41
2018-02-07T01:53:58.750Z,38.43
2018-02-07T01:54:59.173Z,38.38
2018-02-07T01:55:58.708Z,38.49
2018-02-07T01:56:59.166Z,38.39
2018-02-07T01:57:58.613Z,38.4
2018-02-07T01:58:59.038Z,38.47
2018-02-07T01:59:58.459Z,38.47
2018-02-07T02:00:59.041Z,38.42
2018-02-07T02:01:58.465Z,38.45
2018-02-07T02:02:58.956Z,38.51
2018-02-07T02:03:58.370Z,38.51
2018-02-07T02:04:58.797Z,38.44
2018-02-07T02:05:59.248Z,38.46
2018-02-07T02:06:58.677Z,38.44
2018-02-07T02:07:59.101Z,38.42
2018-02-07T02:08:58.525Z,38.41
2018-02-07T02:09:58.935Z,38.39
2018-02-07T02:10:58.396Z,38.38
2018-02-07T02:11:58.825Z,38.48
2018-02-07T02:12:59.258Z,38.47
2018-02-07T02:13:58.681Z,38.41
2018-02-07T02:14:59.095Z,38.52
2018-02-07T02:15:58.524Z,38.49
2018-02-07T02:16:58.970Z,38.48
2018-02-07T02:17:58.404Z,38.43
2018-02-07T02:18:58.870Z,38.49
2018-02-07T02:19:58.502Z,38.42
2018-02-07T02:20:58.940Z,38.52
2018-02-07T02:21:58.400Z,38.42
2018-02-07T02:22:58.804Z,38.42
2018-02-07T02:23:59.234Z,38.45
2018-02-07T02:24:58.695Z,38.42
2018-02-07T02:25:59.116Z,38.44
2018-02-07T02:26:58.582Z,38.4
2018-02-07T02:27:59.042Z,38.38
2018-02-07T02:28:58.455Z,38.42
2018-02-07T02:29:58.914Z,38.5
2018-02-07T02:30:58.361Z,38.42
2018-02-07T02:31:58.824Z,38.4
2018-02-07T02:32:59.275Z,38.42
2018-02-07T02:33:58.757Z,38.38
2018-02-07T02:34:59.219Z,38.43
2018-02-07T02:35:58.646Z,38.36
2018-02-07T02:36:59.102Z,38.36
2018-02-07T02:37:58.543Z,38.4
2018-02-07T02:38:59.005Z,38.42
2018-02-07T02:39:58.467Z,38.39
2018-02-07T02:40:58.908Z,38.48
2018-02-07T02:41:58.358Z,38.43
2018-02-07T02:42:58.787Z,38.47
2018-02-07T02:43:59.213Z,38.4
2018-02-07T02:44:58.637Z,38.45
2018-02-07T02:45:59.085Z,38.43
2018-02-07T02:46:58.527Z,38.38
2018-02-07T02:47:58.971Z,38.39
2018-02-07T02:48:58.398Z,38.43
2018-02-07T02:49:58.790Z,38.48
2018-02-07T02:50:59.211Z,38.42
2018-02-07T02:51:58.652Z,38.42
2018-02-07T02:52:59.098Z,38.39
2018-02-07T02:53:58.512Z,38.41
2018-02-07T02:54:58.914Z,38.45
2018-02-07T02:55:58.338Z,38.4
2018-02-07T02:56:58.767Z,38.42
2018-02-07T02:57:59.400Z,38.31
2018-02-07T02:58:58.943Z,38.38
2018-02-07T02:59:58.374Z,38.42
2018-02-07T03:00:58.800Z,38.44
2018-02-07T03:01:59.213Z,38.5
2018-02-07T03:02:58.670Z,38.43
2018-02-07T03:03:59.107Z,38.37
2018-02-07T03:04:58.529Z,38.36
2018-02-07T03:05:59.006Z,38.43
2018-02-07T03:06:58.451Z,38.42
2018-02-07T03:07:59.038Z,38.35
2018-02-07T03:08:58.464Z,38.38
2018-02-07T03:09:58.894Z,38.35
2018-02-07T03:10:58.339Z,38.42
2018-02-07T03:11:58.771Z,38.44
2018-02-07T03:12:59.238Z,38.39
2018-02-07T03:13:58.702Z,38.42
2018-02-07T03:14:59.115Z,38.34
2018-02-07T03:15:58.537Z,38.32
2018-02-07T03:16:58.978Z,38.34
2018-02-07T03:17:58.424Z,38.32
2018-02-07T03:18:58.844Z,38.31
2018-02-07T03:19:58.260Z,38.29
2018-02-07T03:20:58.917Z,38.34
2018-02-07T03:21:58.436Z,38.34
2018-02-07T03:22:58.867Z,38.41
2018-02-07T03:23:58.292Z,38.35
2018-02-07T03:24:58.713Z,38.38
2018-02-07T03:25:59.130Z,38.36
2018-02-07T03:26:58.532Z,38.38
2018-02-07T03:27:59.031Z,38.33
2018-02-07T03:28:58.461Z,38.32
2018-02-07T03:29:58.890Z,38.35
2018-02-07T03:30:58.304Z,38.45
2018-02-07T03:31:58.736Z,38.37
2018-02-07T03:32:59.195Z,38.39
2018-02-07T03:33:58.620Z,38.37
2018-02-07T03:34:59.037Z,38.33
2018-02-07T03:35:58.457Z,38.37
2018-02-07T03:36:58.927Z,38.38
2018-02-07T03:37:58.364Z,38.33
2018-02-07T03:38:58.797Z,38.38
2018-02-07T03:39:59.223Z,38.4
2018-02-07T03:40:58.731Z,38.33
2018-02-07T03:41:59.149Z,38.33
2018-02-07T03:42:58.607Z,38.4
2018-02-07T03:43:59.028Z,38.34
2018-02-07T03:44:58.443Z,38.38
2018-02-07T03:45:58.854Z,38.42
2018-02-07T03:46:58.273Z,38.4
2018-02-07T03:47:58.691Z,38.34
2018-02-07T03:48:59.187Z,38.41
2018-02-07T03:49:58.628Z,38.34
2018-02-07T03:50:59.047Z,38.31
2018-02-07T03:51:58.470Z,38.32
2018-02-07T03:52:58.963Z,38.33
2018-02-07T03:53:58.447Z,38.35
2018-02-07T03:54:58.867Z,38.38
2018-02-07T03:55:58.292Z,38.29
2018-02-07T03:56:58.731Z,38.29
2018-02-07T03:57:59.145Z,38.28
2018-02-07T03:58:58.586Z,38.36
2018-02-07T03:59:59.000Z,38.31
2018-02-07T04:01:58.700Z,38.31
2018-02-07T04:02:59.137Z,38.29
2018-02-07T04:03:58.586Z,38.28
2018-02-07T04:04:58.995Z,38.3
2018-02-07T04:05:58.431Z,38.28
2018-02-07T04:06:58.865Z,38.28
2018-02-07T04:07:58.333Z,38.31
2018-02-07T04:08:58.803Z,38.31
2018-02-07T04:09:59.247Z,38.21
2018-02-07T04:10:58.664Z,38.28
2018-02-07T04:11:59.109Z,38.28
2018-02-07T04:12:58.529Z,38.32
2018-02-07T04:13:58.977Z,38.4
2018-02-07T04:14:58.458Z,38.37
2018-02-07T04:15:58.886Z,38.35
2018-02-07T04:16:58.302Z,38.35
2018-02-07T04:17:58.756Z,38.34
2018-02-07T04:18:59.166Z,38.33
2018-02-07T04:19:58.776Z,38.3
2018-02-07T04:20:59.218Z,38.31
2018-02-07T04:21:58.879Z,38.33
2018-02-07T04:22:58.328Z,38.34
2018-02-07T04:23:58.767Z,38.31
2018-02-07T04:24:59.245Z,38.33
2018-02-07T04:25:58.663Z,38.39
2018-02-07T04:26:59.078Z,38.34
2018-02-07T04:27:58.527Z,38.37
2018-02-07T04:28:58.945Z,38.37
2018-02-07T04:29:58.391Z,38.34
2018-02-07T04:30:58.846Z,38.29
2018-02-07T04:31:58.272Z,38.29
2018-02-07T04:32:58.708Z,38.33
2018-02-07T04:33:59.123Z,38.29
2018-02-07T04:34:58.538Z,38.31
2018-02-07T04:35:58.990Z,38.35
2018-02-07T04:36:58.406Z,38.39
2018-02-07T04:37:58.843Z,38.32
2018-02-07T04:38:58.273Z,38.32
2018-02-07T04:39:58.812Z,38.32
2018-02-07T04:40:58.239Z,38.35
2018-02-07T04:41:58.660Z,38.33
2018-02-07T04:42:59.091Z,38.35
2018-02-07T04:43:58.555Z,38.42
2018-02-07T04:44:58.932Z,38.39
2018-02-07T04:45:58.349Z,38.42
2018-02-07T04:46:58.778Z,38.41
2018-02-07T04:47:58.212Z,38.35
2018-02-07T04:48:58.689Z,38.38
2018-02-07T04:49:59.142Z,38.41
2018-02-07T04:50:58.617Z,38.44
2018-02-07T04:51:59.042Z,38.39
2018-02-07T04:52:58.510Z,38.47
2018-02-07T04:53:58.954Z,38.43
2018-02-07T04:54:58.358Z,38.44
2018-02-07T04:55:58.827Z,38.52
2018-02-07T04:56:58.285Z,38.49
2018-02-07T04:57:58.733Z,38.48
2018-02-07T04:58:59.168Z,38.51
2018-02-07T04:59:58.689Z,38.5
2018-02-07T05:00:59.225Z,38.5
2018-02-07T05:01:58.659Z,38.53
2018-02-07T05:02:59.136Z,38.52
2018-02-07T05:03:58.658Z,38.53
2018-02-07T05:04:59.122Z,38.58
2018-02-07T05:05:58.548Z,38.55
2018-02-07T05:06:58.986Z,38.55
2018-02-07T05:07:58.434Z,38.61
2018-02-07T05:08:58.873Z,38.64
2018-02-07T05:09:58.360Z,38.63
2018-02-07T05:10:59.003Z,38.6
2018-02-07T05:11:58.447Z,38.76
2018-02-07T05:12:58.878Z,38.72
2018-02-07T05:13:58.314Z,38.83
2018-02-07T05:14:58.745Z,38.8
2018-02-07T05:15:59.203Z,38.76
2018-02-07T05:16:58.627Z,38.73
2018-02-07T05:17:59.079Z,38.78
2018-02-07T05:18:58.657Z,38.71
2018-02-07T05:19:59.060Z,38.73
2018-02-07T05:20:58.569Z,38.72
2018-02-07T05:21:59.012Z,38.63
2018-02-07T05:23:58.956Z,38.7
2018-02-07T05:24:58.375Z,38.73
2018-02-07T05:25:58.817Z,38.72
2018-02-07T05:26:58.364Z,38.79
2018-02-07T05:28:59.104Z,38.77
2018-02-07T05:29:58.540Z,38.75
2018-02-07T05:30:58.985Z,38.78
2018-02-07T05:31:58.408Z,38.71
2018-02-07T05:32:58.918Z,38.8
2018-02-07T05:33:58.282Z,38.83
2018-02-07T05:34:58.724Z,38.81
2018-02-07T05:35:59.155Z,38.78
2018-02-07T05:36:58.583Z,38.8
2018-02-07T05:37:59.150Z,38.81
2018-02-07T05:38:58.578Z,38.85
2018-02-07T05:39:59.012Z,38.85
2018-02-07T05:40:58.447Z,38.86
2018-02-07T05:41:58.896Z,38.84
2018-02-07T05:42:58.362Z,38.84
2018-02-07T05:43:58.782Z,38.82
2018-02-07T05:44:58.231Z,38.81
2018-02-07T05:45:58.659Z,38.81
2018-02-07T05:46:59.114Z,38.79
2018-02-07T05:47:58.521Z,38.82
2018-02-07T05:48:58.975Z,38.82
2018-02-07T05:49:58.435Z,38.81
2018-02-07T05:50:58.907Z,38.81
2018-02-07T05:51:58.337Z,38.8
2018-02-07T05:52:58.812Z,38.7
2018-02-07T05:53:58.304Z,38.68
2018-02-07T05:54:58.722Z,38.68
2018-02-07T05:55:59.147Z,38.69
2018-02-07T05:56:58.562Z,38.72
2018-02-07T05:57:58.985Z,38.67
2018-02-07T05:58:58.437Z,38.67
2018-02-07T05:59:58.868Z,38.67
2018-02-07T06:00:58.320Z,38.65
2018-02-07T06:01:58.800Z,38.64
2018-02-07T06:02:59.178Z,38.64
2018-02-07T06:03:58.621Z,38.63
2018-02-07T06:04:59.057Z,38.62
2018-02-07T06:05:58.476Z,38.62
2018-02-07T06:06:58.906Z,38.61
2018-02-07T06:07:58.338Z,38.62
2018-02-07T06:08:58.760Z,38.62
2018-02-07T06:09:59.208Z,38.6
2018-02-07T06:10:58.654Z,38.61
2018-02-07T06:11:59.081Z,38.6
2018-02-07T06:12:58.504Z,38.6
2018-02-07T06:13:58.970Z,38.59
2018-02-07T06:14:58.451Z,38.6
2018-02-07T06:15:58.875Z,38.58
2018-02-07T06:16:58.309Z,38.6
2018-02-07T06:17:58.743Z,38.59
2018-02-07T06:18:59.196Z,38.58
2018-02-07T06:19:58.620Z,38.58
2018-02-07T06:20:59.133Z,38.58
2018-02-07T06:21:58.565Z,38.58
2018-02-07T06:22:58.990Z,38.58
2018-02-07T06:23:58.639Z,38.56
2018-02-07T06:24:59.035Z,38.6
2018-02-07T06:25:58.467Z,38.57
2018-02-07T06:26:58.898Z,38.57
2018-02-07T06:27:58.348Z,38.58
2018-02-07T06:28:58.957Z,38.49
2018-02-07T06:29:58.368Z,38.49
2018-02-07T06:30:58.796Z,38.57
2018-02-07T06:31:58.238Z,38.56
2018-02-07T06:32:58.672Z,38.54
2018-02-07T06:33:59.145Z,38.56
2018-02-07T06:34:58.589Z,38.56
2018-02-07T06:35:59.022Z,38.56
2018-02-07T06:36:58.439Z,38.53
2018-02-07T06:37:58.860Z,38.54
2018-02-07T06:38:58.331Z,38.54
2018-02-07T06:39:58.765Z,38.52
2018-02-07T06:40:58.210Z,38.52
2018-02-07T06:41:58.645Z,38.53
2018-02-07T06:42:59.066Z,38.52
2018-02-07T06:43:58.502Z,38.52
2018-02-07T06:44:58.934Z,38.53
2018-02-07T06:45:58.366Z,38.49
2018-02-07T06:46:58.814Z,38.5
2018-02-07T06:47:58.237Z,38.53
2018-02-07T06:48:58.681Z,38.53
2018-02-07T06:49:59.151Z,38.45
2018-02-07T06:50:58.566Z,38.48
2018-02-07T06:51:59.264Z,38.5
2018-02-07T06:52:58.632Z,38.49
2018-02-07T06:53:59.114Z,38.51
2018-02-07T06:54:58.562Z,38.49
2018-02-07T06:55:58.979Z,38.49
2018-02-07T06:56:58.443Z,38.5
2018-02-07T06:57:58.866Z,38.5
2018-02-07T06:58:58.319Z,38.48
2018-02-07T06:59:58.850Z,38.48
2018-02-07T07:00:58.281Z,38.46
2018-02-07T07:01:58.783Z,38.48
2018-02-07T07:02:58.218Z,38.44
2018-02-07T07:03:58.725Z,38.47
2018-02-07T07:04:58.235Z,38.47
2018-02-07T07:05:58.676Z,38.47
2018-02-07T07:06:59.364Z,38.46
2018-02-07T07:07:58.781Z,38.47
2018-02-07T07:08:58.208Z,38.46
2018-02-07T07:09:58.641Z,38.45
2018-02-07T07:10:59.071Z,38.46
2018-02-07T07:11:58.538Z,38.46
2018-02-07T07:12:58.963Z,38.49
2018-02-07T07:13:58.402Z,38.42
2018-02-07T07:14:58.854Z,38.46
2018-02-07T07:15:58.390Z,38.39
2018-02-07T07:16:58.842Z,38.43
2018-02-07T07:17:58.265Z,38.38
2018-02-07T07:18:58.690Z,38.37
2018-02-07T07:19:58.991Z,38.38
2018-02-07T07:20:58.407Z,38.42
2018-02-07T07:21:58.848Z,38.36
2018-02-07T07:22:58.296Z,38.4
2018-02-07T07:23:58.732Z,38.33
2018-02-07T07:24:58.415Z,38.4
2018-02-07T07:25:58.835Z,38.31
2018-02-07T07:26:58.276Z,38.35
2018-02-07T07:27:58.699Z,38.32
2018-02-07T07:28:59.138Z,38.35
2018-02-07T07:29:58.587Z,38.33
2018-02-07T07:30:59.025Z,38.33
2018-02-07T07:31:58.458Z,38.29
2018-02-07T07:32:58.910Z,38.3
2018-02-07T07:33:58.344Z,38.29
2018-02-07T07:34:58.790Z,38.22
2018-02-07T07:36:58.405Z,38.3
2018-02-07T07:37:58.867Z,38.27
2018-02-07T07:38:58.304Z,38.3
2018-02-07T07:39:58.737Z,38.3
2018-02-07T07:40:58.167Z,38.34
2018-02-07T07:41:58.586Z,38.33
2018-02-07T07:42:59.009Z,38.31
2018-02-07T07:43:58.454Z,38.21
2018-02-07T07:44:58.892Z,38.31
2018-02-07T07:45:58.311Z,38.31
2018-02-07T07:46:58.738Z,38.32
2018-02-07T07:47:58.188Z,38.32
2018-02-07T07:48:58.616Z,38.34
2018-02-07T07:49:59.164Z,38.3
2018-02-07T07:50:58.584Z,38.33
2018-02-07T07:51:59.030Z,38.37
2018-02-07T07:52:58.479Z,38.33
2018-02-07T07:54:59.209Z,38.42
2018-02-07T07:55:58.674Z,38.33
2018-02-07T07:56:59.084Z,38.6
2018-02-07T07:57:58.514Z,38.65
2018-02-07T07:58:58.951Z,38.66
2018-02-07T07:59:58.413Z,38.67
2018-02-07T08:00:58.964Z,38.66
2018-02-07T08:01:58.534Z,38.67
2018-02-07T08:02:58.949Z,38.69
2018-02-07T08:03:58.396Z,38.69
2018-02-07T08:04:58.859Z,38.68
2018-02-07T08:06:58.618Z,38.7
2018-02-07T08:07:59.066Z,38.7
2018-02-07T08:08:58.477Z,38.82
2018-02-07T08:09:58.937Z,38.43
2018-02-07T08:10:58.417Z,38.47
2018-02-07T08:11:58.844Z,38.54
2018-02-07T08:12:58.330Z,38.62
2018-02-07T08:13:58.769Z,38.62
2018-02-07T08:14:58.223Z,38.67
2018-02-07T08:15:58.683Z,38.65
2018-02-07T08:16:59.105Z,38.66
2018-02-07T08:17:58.571Z,38.71
2018-02-07T08:18:59.048Z,38.67
2018-02-07T08:19:58.492Z,38.69
2018-02-07T08:20:58.947Z,38.73
2018-02-07T08:21:58.366Z,38.68
2018-02-07T08:22:58.814Z,38.69
2018-02-07T08:23:58.263Z,38.69
2018-02-07T08:24:58.733Z,38.72
2018-02-07T08:25:58.390Z,38.75
2018-02-07T08:26:58.854Z,38.74
2018-02-07T08:27:58.550Z,38.75
2018-02-07T08:28:58.959Z,38.72
2018-02-07T08:29:58.378Z,38.75
2018-02-07T08:30:58.845Z,38.74
2018-02-07T08:31:58.314Z,38.74
2018-02-07T08:32:58.840Z,38.71
2018-02-07T08:33:58.285Z,38.77
2018-02-07T08:34:58.707Z,38.77
2018-02-07T08:35:58.178Z,38.73
2018-02-07T08:36:58.622Z,38.72
2018-02-07T08:37:59.185Z,38.75
2018-02-07T08:38:58.609Z,38.61
2018-02-07T08:39:59.075Z,38.74
2018-02-07T08:40:58.522Z,38.78
2018-02-07T08:41:58.967Z,38.58
2018-02-07T08:42:58.420Z,38.63
2018-02-07T08:43:58.855Z,38.65
2018-02-07T08:44:58.310Z,38.67
2018-02-07T08:45:58.743Z,38.74
2018-02-07T08:46:58.161Z,38.67
2018-02-07T08:47:58.628Z,38.65
2018-02-07T08:48:59.179Z,38.69
2018-02-07T08:49:58.622Z,38.71
2018-02-07T08:50:59.112Z,38.7
2018-02-07T08:51:58.565Z,38.72
2018-02-07T08:52:59.017Z,38.71
2018-02-07T08:53:58.487Z,38.7
2018-02-07T08:54:58.916Z,38.72
2018-02-07T08:55:58.422Z,38.55
2018-02-07T08:56:58.954Z,38.54
2018-02-07T08:57:58.406Z,38.63
2018-02-07T08:58:58.859Z,38.66
2018-02-07T08:59:58.303Z,38.64
2018-02-07T09:00:58.793Z,38.64
2018-02-07T09:01:58.230Z,38.58
2018-02-07T09:02:58.684Z,38.56
2018-02-07T09:03:59.099Z,38.66
2018-02-07T09:04:58.672Z,38.67
2018-02-07T09:05:59.119Z,38.64
2018-02-07T09:06:58.562Z,38.68
2018-02-07T09:07:59.001Z,38.63
2018-02-07T09:08:58.467Z,38.67
2018-02-07T09:09:58.975Z,38.68
2018-02-07T09:10:58.645Z,38.61
2018-02-07T09:11:59.055Z,38.57
2018-02-07T09:12:58.502Z,38.65
2018-02-07T09:13:58.961Z,38.65
2018-02-07T09:14:58.412Z,38.65
2018-02-07T09:15:58.887Z,38.63
2018-02-07T09:16:58.345Z,38.57
2018-02-07T09:17:58.778Z,38.59
2018-02-07T09:18:58.187Z,38.59
2018-02-07T09:19:58.642Z,38.54
2018-02-07T09:20:59.080Z,38.56
2018-02-07T09:21:58.538Z,38.6
2018-02-07T09:22:58.998Z,38.63
2018-02-07T09:23:58.460Z,38.55
2018-02-07T09:24:58.897Z,38.59
2018-02-07T09:25:58.354Z,38.57
2018-02-07T09:26:59.067Z,38.54
2018-02-07T09:27:58.542Z,38.51
2018-02-07T09:28:58.999Z,38.52
2018-02-07T09:29:58.432Z,38.53
2018-02-07T09:30:58.878Z,38.55
2018-02-07T09:31:58.339Z,38.6
2018-02-07T09:32:58.841Z,38.46
2018-02-07T09:33:58.263Z,38.46
2018-02-07T09:34:58.726Z,38.5
2018-02-07T09:35:58.197Z,38.46
2018-02-07T09:36:58.633Z,38.4
2018-02-07T09:37:59.122Z,38.49
2018-02-07T09:38:58.552Z,38.48
2018-02-07T09:39:59.008Z,38.45
2018-02-07T09:40:58.488Z,38.48
2018-02-07T09:41:58.924Z,38.41
2018-02-07T09:42:58.404Z,38.39
2018-02-07T09:43:58.825Z,38.38
2018-02-07T09:44:58.255Z,38.38
2018-02-07T09:45:58.675Z,38.46
2018-02-07T09:46:59.102Z,38.4
2018-02-07T09:47:58.547Z,38.43
2018-02-07T09:48:58.996Z,38.38
2018-02-07T09:49:58.465Z,38.37
2018-02-07T09:50:58.942Z,38.31
2018-02-07T09:51:58.378Z,38.32
2018-02-07T09:52:58.820Z,38.33
2018-02-07T09:53:58.316Z,38.33
2018-02-07T09:54:58.748Z,38.37
2018-02-07T09:55:58.240Z,38.4
2018-02-07T09:56:58.661Z,38.4
2018-02-07T09:57:59.113Z,38.39
2018-02-07T09:58:58.553Z,38.33
2018-02-07T09:59:59.019Z,38.31
2018-02-07T10:00:58.497Z,38.37
2018-02-07T10:01:58.979Z,38.33
2018-02-07T10:02:58.456Z,38.27
2018-02-07T10:03:58.895Z,38.33
2018-02-07T10:04:58.346Z,38.36
2018-02-07T10:05:58.774Z,38.29
2018-02-07T10:06:58.331Z,38.28
2018-02-07T10:07:58.785Z,38.33
2018-02-07T10:08:58.261Z,38.26
2018-02-07T10:09:58.711Z,38.25
2018-02-07T10:10:58.172Z,38.3
2018-02-07T10:11:58.618Z,38.24
2018-02-07T10:12:59.058Z,38.31
2018-02-07T10:13:58.653Z,38.39
2018-02-07T10:14:58.211Z,38.39
2018-02-07T10:15:58.667Z,38.3
2018-02-07T10:16:58.110Z,38.23
2018-02-07T10:17:58.568Z,38.21
2018-02-07T10:18:59.041Z,38.23
2018-02-07T10:19:58.490Z,38.22
2018-02-07T10:21:58.339Z,38.28
2018-02-07T10:22:58.885Z,38.15
2018-02-07T10:23:58.317Z,38.21
2018-02-07T10:24:58.763Z,38.19
2018-02-07T10:25:58.244Z,38.21
2018-02-07T10:26:58.891Z,38.2
2018-02-07T10:27:58.306Z,38.28
2018-02-07T10:28:58.735Z,38.22
2018-02-07T10:29:58.169Z,38.22
2018-02-07T10:30:58.747Z,38.23
2018-02-07T10:31:58.165Z,38.21
2018-02-07T10:32:58.580Z,38.2
2018-02-07T10:33:59.052Z,38.3
2018-02-07T10:34:58.550Z,38.25
2018-02-07T10:35:58.977Z,38.18
2018-02-07T10:36:58.484Z,38.22
2018-02-07T10:37:58.930Z,38.24
2018-02-07T10:38:58.369Z,38.27
2018-02-07T10:39:58.825Z,38.21
2018-02-07T10:40:58.266Z,38.25
2018-02-07T10:41:58.757Z,38.22
2018-02-07T10:42:58.199Z,38.15
2018-02-07T10:43:58.659Z,38.13
2018-02-07T10:44:59.105Z,38.18
2018-02-07T10:45:58.621Z,38.21
2018-02-07T10:46:59.020Z,38.21
2018-02-07T10:47:58.478Z,38.25
2018-02-07T10:48:58.899Z,38.13
2018-02-07T10:49:58.353Z,38.21
2018-02-07T10:50:58.785Z,38.25
2018-02-07T10:51:58.244Z,38.22
2018-02-07T10:52:58.754Z,38.19
2018-02-07T10:53:58.216Z,38.26
2018-02-07T10:54:58.672Z,38.15
2018-02-07T10:55:58.114Z,38.23
2018-02-07T10:56:58.601Z,38.17
2018-02-07T10:57:59.077Z,38.18
2018-02-07T10:58:58.508Z,38.14
2018-02-07T10:59:58.937Z,38.11
2018-02-07T11:00:58.391Z,38.09
2018-02-07T11:01:58.870Z,38.1
2018-02-07T11:02:58.329Z,38.1
2018-02-07T11:03:58.742Z,38.07
2018-02-07T11:04:58.198Z,38.04
2018-02-07T11:05:58.647Z,37.95
2018-02-07T11:06:59.077Z,38.01
2018-02-07T11:07:58.514Z,37.94
2018-02-07T11:08:58.983Z,37.93
2018-02-07T11:09:58.557Z,37.9
2018-02-07T11:10:58.998Z,37.94
2018-02-07T11:11:58.395Z,37.93
2018-02-07T11:12:58.857Z,37.89
2018-02-07T11:13:58.329Z,37.87
2018-02-07T11:14:58.789Z,37.92
2018-02-07T11:15:58.237Z,37.9
2018-02-07T11:16:58.651Z,37.93
2018-02-07T11:17:58.189Z,37.87
2018-02-07T11:18:58.735Z,37.91
2018-02-07T11:19:58.162Z,37.91
2018-02-07T11:20:58.637Z,37.88
2018-02-07T11:21:59.074Z,37.89
2018-02-07T11:22:58.510Z,37.88
2018-02-07T11:23:58.991Z,37.95
2018-02-07T11:24:58.458Z,37.93
2018-02-07T11:25:58.903Z,37.92
2018-02-07T11:26:58.332Z,37.98
2018-02-07T11:27:59.029Z,37.88
2018-02-07T11:28:58.496Z,37.95
2018-02-07T11:29:58.924Z,37.91
2018-02-07T11:30:58.356Z,37.96
2018-02-07T11:31:58.816Z,37.93
2018-02-07T11:32:58.247Z,37.91
2018-02-07T11:33:58.708Z,37.91
2018-02-07T11:34:58.152Z,37.94
2018-02-07T11:35:58.607Z,37.92
2018-02-07T11:36:59.023Z,37.84
2018-02-07T11:37:58.469Z,37.94
2018-02-07T11:38:59.202Z,37.87
2018-02-07T11:39:58.687Z,37.97
2018-02-07T11:40:58.151Z,37.97
2018-02-07T11:41:58.597Z,37.76
2018-02-07T11:42:59.018Z,37.7
2018-02-07T11:43:58.501Z,37.7
2018-02-07T11:44:58.944Z,37.46
2018-02-07T11:45:58.402Z,37.55
2018-02-07T11:46:58.855Z,37.36
2018-02-07T11:47:58.320Z,36.95
2018-02-07T11:48:58.793Z,37.22
2018-02-07T11:49:58.218Z,37.27
2018-02-07T11:50:58.702Z,37.09
2018-02-07T11:51:58.131Z,37.14
2018-02-07T11:52:58.520Z,37.28
2018-02-07T11:53:58.964Z,37.3
2018-02-07T11:54:58.476Z,37.03
2018-02-07T11:55:58.940Z,37.03
2018-02-07T11:56:58.385Z,37.25
2018-02-07T11:57:58.849Z,37.15
2018-02-07T11:58:58.316Z,37.21
2018-02-07T11:59:58.742Z,37.31
2018-02-07T12:00:58.207Z,36.63
2018-02-07T12:01:58.639Z,37.01
2018-02-07T12:02:58.081Z,37.15
2018-02-07T12:03:58.554Z,37.1
2018-02-07T12:04:59.006Z,37.06
2018-02-07T12:05:58.454Z,37.04
2018-02-07T12:06:58.910Z,37.26
2018-02-07T12:07:58.384Z,36.89
2018-02-07T12:08:58.802Z,36.95
2018-02-07T12:09:58.270Z,37.12
2018-02-07T12:10:58.765Z,36.99
2018-02-07T12:11:58.178Z,37.09
2018-02-07T12:12:58.604Z,37.03
2018-02-07T12:13:59.027Z,37.1
2018-02-07T12:14:58.462Z,37.24
2018-02-07T12:15:58.918Z,37.25
2018-02-07T12:17:58.654Z,37.34
2018-02-07T12:18:58.082Z,37.38
2018-02-07T12:19:58.541Z,37.31
2018-02-07T12:20:58.962Z,37.32
2018-02-07T12:21:58.446Z,37.33
2018-02-07T12:22:58.879Z,37.41
2018-02-07T12:23:58.313Z,37.44
2018-02-07T12:24:58.777Z,37.41
2018-02-07T12:25:58.490Z,37.46
2018-02-07T12:26:58.943Z,37.48
2018-02-07T12:27:58.362Z,37.43
2018-02-07T12:28:58.996Z,37.51
2018-02-07T12:29:58.452Z,37.47
2018-02-07T12:30:58.912Z,37.48
2018-02-07T12:31:58.416Z,37.45
2018-02-07T12:32:58.881Z,37.39
2018-02-07T12:33:58.327Z,37.37
2018-02-07T12:34:58.766Z,37.38
2018-02-07T12:35:58.226Z,37.32
2018-02-07T12:36:58.703Z,37.38
2018-02-07T12:37:58.300Z,37.38
2018-02-07T12:38:58.742Z,37.45
2018-02-07T12:39:58.212Z,37.46
2018-02-07T12:40:58.654Z,37.47
2018-02-07T12:41:58.080Z,37.42
2018-02-07T12:42:58.526Z,37.52
2018-02-07T12:43:59.001Z,37.53
2018-02-07T12:44:58.428Z,37.53
2018-02-07T12:45:58.890Z,37.49
2018-02-07T12:46:58.299Z,37.53
2018-02-07T12:47:58.726Z,37.49
2018-02-07T12:48:58.173Z,37.55
2018-02-07T12:49:58.596Z,37.33
2018-02-07T12:50:59.065Z,37.4
2018-02-07T12:51:58.517Z,37.29
2018-02-07T12:52:59.207Z,37.44
2018-02-07T12:53:58.624Z,37.38
2018-02-07T12:54:58.047Z,37.37
2018-02-07T12:55:58.525Z,37.41
2018-02-07T12:56:58.949Z,37.4
2018-02-07T12:57:58.399Z,37.4
2018-02-07T12:58:58.929Z,37.41
2018-02-07T12:59:58.396Z,37.48
2018-02-07T13:00:58.842Z,37.51
2018-02-07T13:01:58.264Z,37.54
2018-02-07T13:02:58.810Z,37.53
2018-02-07T13:03:58.232Z,37.58
2018-02-07T13:04:58.662Z,37.49